createdAt,value
2023-06-15T00:00:51.627Z,4.60
2023-06-15T00:01:51.621Z,4.80
2023-06-15T00:02:51.707Z,4.60
2023-06-15T00:03:51.684Z,4.80
2023-06-15T00:04:51.732Z,5.00
2023-06-15T00:05:51.582Z,4.70
2023-06-15T00:06:51.562Z,4.40
2023-06-15T00:07:51.554Z,4.70
2023-06-15T00:08:51.555Z,5.50
2023-06-15T00:09:51.542Z,4.50
2023-06-15T00:10:51.522Z,4.80
2023-06-15T00:11:51.512Z,5.70
2023-06-15T00:12:51.499Z,6.40
2023-06-15T00:13:51.515Z,5.90
2023-06-15T00:14:51.475Z,5.60
2023-06-15T00:15:51.484Z,6.00
2023-06-15T00:16:51.455Z,5.70
2023-06-15T00:17:51.491Z,5.80
2023-06-15T00:18:51.441Z,6.40
2023-06-15T00:19:51.419Z,6.40
2023-06-15T00:20:51.420Z,6.00
2023-06-15T00:21:51.394Z,6.60
2023-06-15T00:22:51.399Z,6.10
2023-06-15T00:23:51.457Z,6.60
2023-06-15T00:24:51.376Z,6.10
2023-06-15T00:25:51.353Z,6.40
2023-06-15T00:26:51.344Z,5.70
2023-06-15T00:27:51.356Z,6.30
2023-06-15T00:28:51.375Z,6.30
2023-06-15T00:29:51.320Z,6.20
2023-06-15T00:30:51.304Z,6.50
2023-06-15T00:31:51.289Z,6.30
2023-06-15T00:32:51.417Z,6.30
2023-06-15T00:33:51.262Z,5.90
2023-06-15T00:34:51.257Z,6.20
2023-06-15T00:35:51.245Z,6.30
2023-06-15T00:36:51.259Z,5.70
2023-06-15T00:37:51.327Z,5.80
2023-06-15T00:38:51.218Z,5.60
2023-06-15T00:39:51.214Z,5.50
2023-06-15T00:40:51.198Z,5.80
2023-06-15T00:41:51.195Z,5.00
2023-06-15T00:42:51.170Z,6.00
2023-06-15T00:43:51.172Z,5.90
2023-06-15T00:44:51.149Z,6.10
2023-06-15T00:45:51.147Z,5.80
2023-06-15T00:46:51.187Z,5.90
2023-06-15T00:47:51.146Z,6.40
2023-06-15T00:48:51.111Z,5.30
2023-06-15T00:49:51.097Z,5.80
2023-06-15T00:50:51.119Z,6.00
2023-06-15T00:51:51.095Z,5.20
2023-06-15T00:52:51.072Z,5.80
2023-06-15T00:53:51.062Z,5.30
2023-06-15T00:54:51.060Z,5.90
2023-06-15T00:55:51.051Z,5.60
2023-06-15T00:56:51.025Z,5.60
2023-06-15T00:57:51.166Z,6.10
2023-06-15T00:58:51.013Z,5.80
2023-06-15T00:59:50.990Z,5.90
2023-06-15T01:00:51.078Z,6.20
2023-06-15T01:01:50.970Z,5.40
2023-06-15T01:02:51.102Z,6.10
2023-06-15T01:03:51.008Z,5.70
2023-06-15T01:04:50.962Z,5.70
2023-06-15T01:05:50.937Z,5.50
2023-06-15T01:06:50.979Z,5.60
2023-06-15T01:07:50.903Z,5.80
2023-06-15T01:08:50.898Z,5.80
2023-06-15T01:09:50.903Z,6.10
2023-06-15T01:10:50.877Z,5.30
2023-06-15T01:11:50.862Z,5.80
2023-06-15T01:12:50.930Z,5.30
2023-06-15T01:13:50.840Z,5.60
2023-06-15T01:14:50.855Z,5.30
2023-06-15T01:15:50.816Z,5.60
2023-06-15T01:16:50.873Z,5.70
2023-06-15T01:17:50.818Z,5.30
2023-06-15T01:18:50.805Z,4.90
2023-06-15T01:19:50.804Z,5.10
2023-06-15T01:20:50.767Z,5.80
2023-06-15T01:21:50.747Z,5.10
2023-06-15T01:22:50.814Z,4.80
2023-06-15T01:23:50.822Z,5.10
2023-06-15T01:24:50.732Z,4.90
2023-06-15T01:25:50.727Z,4.90
2023-06-15T01:26:50.704Z,4.80
2023-06-15T01:27:50.706Z,5.30
2023-06-15T01:28:50.752Z,4.80
2023-06-15T01:29:50.664Z,4.70
2023-06-15T01:30:50.698Z,5.20
2023-06-15T01:31:50.810Z,5.10
2023-06-15T01:32:50.709Z,5.10
2023-06-15T01:33:50.647Z,5.40
2023-06-15T01:34:50.611Z,5.40
2023-06-15T01:35:50.611Z,5.40
2023-06-15T01:36:50.598Z,5.40
2023-06-15T01:37:50.596Z,4.60
2023-06-15T01:38:50.585Z,5.10
2023-06-15T01:39:50.551Z,5.20
2023-06-15T01:40:50.593Z,5.00
2023-06-15T01:41:50.535Z,5.00
2023-06-15T01:42:50.553Z,4.70
2023-06-15T01:43:50.529Z,4.90
2023-06-15T01:44:50.508Z,4.80
2023-06-15T01:45:50.534Z,5.00
2023-06-15T01:46:50.545Z,4.70
2023-06-15T01:47:50.596Z,4.80
2023-06-15T01:48:50.461Z,4.90
2023-06-15T01:49:50.452Z,4.80
2023-06-15T01:50:50.442Z,5.50
2023-06-15T01:51:50.450Z,5.20
2023-06-15T01:52:50.419Z,5.70
2023-06-15T01:53:50.405Z,5.60
2023-06-15T01:54:50.400Z,5.40
2023-06-15T01:55:50.378Z,6.00
2023-06-15T01:56:50.409Z,5.50
2023-06-15T01:57:50.357Z,5.10
2023-06-15T01:58:50.351Z,5.20
2023-06-15T01:59:50.338Z,4.80
2023-06-15T02:00:50.365Z,5.00
2023-06-15T02:01:50.382Z,5.40
2023-06-15T02:02:50.362Z,5.20
2023-06-15T02:03:50.294Z,5.50
2023-06-15T02:04:50.294Z,5.70
2023-06-15T02:05:50.288Z,5.30
2023-06-15T02:06:50.275Z,5.00
2023-06-15T02:07:50.303Z,5.10
2023-06-15T02:08:50.253Z,5.30
2023-06-15T02:09:50.246Z,4.80
2023-06-15T02:10:50.255Z,4.90
2023-06-15T02:11:50.207Z,4.90
2023-06-15T02:12:50.216Z,4.70
2023-06-15T02:13:50.205Z,4.70
2023-06-15T02:14:50.195Z,5.00
2023-06-15T02:15:50.170Z,5.20
2023-06-15T02:16:51.050Z,5.50
2023-06-15T02:17:50.177Z,5.10
2023-06-15T02:18:50.141Z,5.50
2023-06-15T02:19:50.176Z,5.30
2023-06-15T02:20:50.124Z,5.10
2023-06-15T02:21:50.108Z,4.80
2023-06-15T02:22:50.099Z,5.20
2023-06-15T02:23:50.184Z,5.30
2023-06-15T02:24:50.096Z,5.20
2023-06-15T02:25:50.065Z,5.10
2023-06-15T02:26:50.054Z,5.40
2023-06-15T02:27:50.049Z,5.30
2023-06-15T02:28:50.052Z,5.70
2023-06-15T02:29:50.010Z,5.80
2023-06-15T02:30:50.011Z,5.00
2023-06-15T02:31:50.002Z,5.40
2023-06-15T02:32:50.077Z,5.40
2023-06-15T02:33:50.088Z,5.20
2023-06-15T02:34:49.966Z,5.30
2023-06-15T02:35:49.943Z,6.10
2023-06-15T02:36:49.954Z,5.70
2023-06-15T02:37:49.942Z,6.10
2023-06-15T02:38:49.957Z,5.60
2023-06-15T02:39:49.903Z,5.90
2023-06-15T02:40:49.908Z,5.60
2023-06-15T02:41:49.912Z,5.90
2023-06-15T02:42:49.909Z,5.90
2023-06-15T02:43:49.860Z,5.50
2023-06-15T02:44:49.863Z,5.60
2023-06-15T02:45:49.841Z,5.80
2023-06-15T02:46:49.847Z,5.50
2023-06-15T02:47:49.852Z,5.20
2023-06-15T02:48:49.823Z,5.70
2023-06-15T02:49:49.810Z,5.40
2023-06-15T02:50:49.790Z,5.40
2023-06-15T02:51:49.802Z,5.20
2023-06-15T02:52:49.777Z,5.40
2023-06-15T02:53:49.761Z,5.90
2023-06-15T02:54:49.748Z,5.90
2023-06-15T02:55:49.781Z,5.50
2023-06-15T02:56:49.743Z,5.70
2023-06-15T02:57:49.714Z,5.20
2023-06-15T02:58:49.710Z,5.50
2023-06-15T02:59:49.690Z,5.40
2023-06-15T03:00:49.753Z,5.50
2023-06-15T03:01:49.693Z,6.00
2023-06-15T03:02:49.809Z,5.30
2023-06-15T03:03:49.663Z,5.30
2023-06-15T03:04:49.643Z,5.30
2023-06-15T03:05:49.646Z,5.00
2023-06-15T03:06:49.578Z,5.60
2023-06-15T03:07:49.550Z,5.40
2023-06-15T03:08:49.557Z,5.00
2023-06-15T03:09:49.535Z,5.60
2023-06-15T03:10:49.539Z,5.60
2023-06-15T03:11:49.570Z,5.70
2023-06-15T03:12:49.561Z,5.60
2023-06-15T03:13:49.546Z,5.80
2023-06-15T03:14:49.541Z,5.90
2023-06-15T03:15:49.551Z,5.90
2023-06-15T03:16:49.519Z,6.10
2023-06-15T03:17:49.549Z,6.00
2023-06-15T03:18:49.508Z,5.30
2023-06-15T03:19:49.504Z,5.80
2023-06-15T03:20:49.544Z,5.90
2023-06-15T03:21:49.470Z,6.20
2023-06-15T03:22:49.463Z,5.50
2023-06-15T03:23:49.497Z,6.20
2023-06-15T03:24:49.458Z,5.60
2023-06-15T03:25:49.424Z,6.10
2023-06-15T03:26:49.375Z,5.50
2023-06-15T03:27:49.348Z,5.90
2023-06-15T03:28:49.357Z,6.00
2023-06-15T03:29:49.404Z,5.30
2023-06-15T03:30:49.369Z,5.60
2023-06-15T03:31:49.360Z,5.20
2023-06-15T03:32:49.387Z,5.60
2023-06-15T03:33:49.362Z,5.40
2023-06-15T03:34:49.336Z,6.20
2023-06-15T03:35:49.321Z,5.70
2023-06-15T03:36:49.272Z,5.40
2023-06-15T03:37:49.242Z,5.60
2023-06-15T03:38:49.307Z,5.80
2023-06-15T03:39:49.283Z,6.20
2023-06-15T03:40:49.278Z,6.00
2023-06-15T03:41:49.218Z,6.20
2023-06-15T03:42:49.221Z,5.90
2023-06-15T03:43:49.212Z,5.80
2023-06-15T03:44:49.175Z,5.50
2023-06-15T03:45:49.165Z,5.50
2023-06-15T03:46:49.167Z,5.80
2023-06-15T03:47:49.217Z,5.90
2023-06-15T03:48:49.139Z,6.00
2023-06-15T03:49:49.126Z,5.20
2023-06-15T03:50:49.118Z,5.70
2023-06-15T03:51:49.104Z,6.00
2023-06-15T03:52:49.111Z,5.50
2023-06-15T03:53:49.087Z,6.10
2023-06-15T03:54:49.091Z,5.90
2023-06-15T03:55:49.060Z,6.00
2023-06-15T03:56:49.092Z,5.80
2023-06-15T03:57:49.047Z,6.20
2023-06-15T03:58:49.028Z,6.30
2023-06-15T03:59:49.029Z,5.80
2023-06-15T04:00:49.038Z,5.90
2023-06-15T04:01:49.021Z,5.90
2023-06-15T04:02:49.053Z,6.40
2023-06-15T04:03:49.013Z,5.90
2023-06-15T04:04:48.993Z,6.70
2023-06-15T04:05:48.956Z,6.20
2023-06-15T04:06:48.966Z,6.50
2023-06-15T04:07:48.928Z,6.50
2023-06-15T04:08:48.923Z,6.30
2023-06-15T04:09:48.938Z,6.20
2023-06-15T04:10:48.923Z,6.40
2023-06-15T04:11:48.908Z,6.10
2023-06-15T04:12:48.889Z,6.50
2023-06-15T04:13:48.876Z,6.00
2023-06-15T04:14:49.382Z,6.30
2023-06-15T04:15:48.887Z,5.90
2023-06-15T04:16:48.849Z,6.40
2023-06-15T04:17:48.958Z,6.20
2023-06-15T04:18:48.856Z,6.30
2023-06-15T04:19:48.807Z,6.50
2023-06-15T04:20:48.831Z,6.10
2023-06-15T04:21:48.798Z,6.20
2023-06-15T04:22:48.845Z,6.00
2023-06-15T04:23:48.829Z,6.20
2023-06-15T04:24:48.777Z,5.70
2023-06-15T04:25:48.770Z,6.20
2023-06-15T04:26:48.762Z,5.60
2023-06-15T04:27:48.723Z,6.30
2023-06-15T04:28:48.718Z,5.70
2023-06-15T04:29:48.719Z,6.00
2023-06-15T04:30:48.794Z,5.60
2023-06-15T04:31:48.692Z,5.60
2023-06-15T04:32:48.689Z,6.10
2023-06-15T04:33:48.695Z,5.60
2023-06-15T04:34:48.675Z,5.70
2023-06-15T04:35:48.649Z,6.10
2023-06-15T04:36:48.656Z,6.40
2023-06-15T04:37:48.623Z,6.20
2023-06-15T04:38:48.634Z,5.90
2023-06-15T04:39:48.630Z,6.00
2023-06-15T04:40:48.596Z,6.00
2023-06-15T04:41:48.583Z,6.10
2023-06-15T04:42:48.568Z,5.90
2023-06-15T04:43:48.589Z,6.00
2023-06-15T04:44:48.561Z,5.90
2023-06-15T04:45:48.558Z,6.20
2023-06-15T04:46:48.541Z,6.60
2023-06-15T04:47:48.784Z,5.80
2023-06-15T04:48:48.542Z,6.30
2023-06-15T04:49:48.503Z,6.10
2023-06-15T04:50:48.496Z,6.00
2023-06-15T04:51:48.484Z,6.40
2023-06-15T04:52:48.488Z,6.10
2023-06-15T04:53:48.499Z,6.20
2023-06-15T04:54:48.443Z,6.40
2023-06-15T04:55:48.442Z,6.40
2023-06-15T04:56:48.442Z,6.20
2023-06-15T04:57:48.437Z,6.30
2023-06-15T04:58:48.408Z,6.40
2023-06-15T04:59:48.404Z,6.50
2023-06-15T05:00:48.387Z,6.40
2023-06-15T05:01:48.424Z,6.10
2023-06-15T05:02:48.502Z,6.10
2023-06-15T05:03:48.441Z,6.40
2023-06-15T05:04:48.344Z,6.40
2023-06-15T05:05:48.337Z,6.30
2023-06-15T05:06:48.337Z,5.90
2023-06-15T05:07:48.350Z,6.80
2023-06-15T05:08:48.310Z,6.60
2023-06-15T05:09:48.344Z,6.60
2023-06-15T05:10:48.278Z,6.30
2023-06-15T05:11:48.303Z,6.00
2023-06-15T05:12:48.267Z,6.60
2023-06-15T05:13:48.256Z,5.80
2023-06-15T05:14:48.248Z,6.60
2023-06-15T05:15:48.249Z,6.10
2023-06-15T05:16:48.228Z,6.60
2023-06-15T05:17:48.256Z,6.30
2023-06-15T05:18:48.199Z,6.60
2023-06-15T05:19:48.198Z,6.70
2023-06-15T05:20:48.191Z,6.20
2023-06-15T05:21:48.188Z,6.80
2023-06-15T05:22:48.150Z,6.70
2023-06-15T05:23:48.193Z,6.60
2023-06-15T05:24:48.137Z,7.20
2023-06-15T05:25:48.154Z,6.70
2023-06-15T05:26:48.122Z,7.00
2023-06-15T05:27:48.199Z,6.60
2023-06-15T05:28:48.094Z,6.40
2023-06-15T05:29:48.103Z,6.40
2023-06-15T05:30:48.101Z,6.80
2023-06-15T05:31:48.071Z,6.60
2023-06-15T05:32:48.107Z,7.10
2023-06-15T05:33:48.043Z,7.10
2023-06-15T05:34:48.050Z,6.80
2023-06-15T05:35:48.024Z,6.80
2023-06-15T05:36:56.597Z,6.40
2023-06-15T05:37:48.999Z,6.70
2023-06-15T05:38:47.989Z,6.10
2023-06-15T05:39:48.002Z,6.50
2023-06-15T05:40:47.970Z,6.50
2023-06-15T05:41:47.973Z,6.80
2023-06-15T05:42:47.949Z,7.20
2023-06-15T05:43:47.972Z,7.10
2023-06-15T05:44:47.953Z,7.00
2023-06-15T05:45:50.832Z,6.50
2023-06-15T05:46:48.920Z,6.90
2023-06-15T05:47:47.926Z,6.20
2023-06-15T05:48:47.910Z,6.70
2023-06-15T05:49:47.895Z,7.10
2023-06-15T05:50:47.874Z,6.10
2023-06-15T05:51:47.850Z,7.10
2023-06-15T05:52:47.844Z,6.50
2023-06-15T05:53:47.854Z,6.60
2023-06-15T05:54:47.821Z,6.90
2023-06-15T05:55:47.821Z,7.10
2023-06-15T05:56:47.812Z,7.30
2023-06-15T05:57:47.808Z,6.80
2023-06-15T05:58:47.809Z,7.50
2023-06-15T05:59:47.779Z,7.00
2023-06-15T06:00:47.770Z,7.20
2023-06-15T06:01:47.762Z,7.00
2023-06-15T06:02:47.805Z,6.80
2023-06-15T06:03:47.729Z,7.30
2023-06-15T06:04:47.726Z,6.80
2023-06-15T06:05:47.717Z,7.00
2023-06-15T06:06:47.770Z,7.00
2023-06-15T06:07:47.711Z,6.80
2023-06-15T06:08:47.684Z,7.60
2023-06-15T06:09:47.668Z,7.10
2023-06-15T06:10:47.649Z,7.30
2023-06-15T06:11:47.673Z,7.20
2023-06-15T06:12:47.635Z,7.00
2023-06-15T06:13:47.635Z,7.30
2023-06-15T06:14:47.641Z,7.50
2023-06-15T06:15:47.608Z,6.70
2023-06-15T06:16:47.604Z,7.20
2023-06-15T06:18:03.649Z,7.00
2023-06-15T06:18:48.643Z,6.70
2023-06-15T06:19:47.555Z,7.20
2023-06-15T06:20:47.590Z,6.80
2023-06-15T06:21:47.562Z,7.00
2023-06-15T06:22:47.527Z,6.90
2023-06-15T06:23:47.568Z,7.20
2023-06-15T06:24:47.499Z,7.00
2023-06-15T06:25:47.513Z,7.30
2023-06-15T06:26:47.488Z,6.80
2023-06-15T06:27:47.477Z,7.00
2023-06-15T06:28:47.480Z,7.00
2023-06-15T06:29:47.450Z,7.10
2023-06-15T06:30:47.461Z,7.00
2023-06-15T06:31:47.438Z,7.10
2023-06-15T06:32:47.482Z,7.50
2023-06-15T06:33:47.419Z,6.10
2023-06-15T06:34:47.438Z,6.70
2023-06-15T06:35:47.419Z,7.20
2023-06-15T06:36:47.378Z,7.20
2023-06-15T06:37:47.366Z,7.40
2023-06-15T06:39:01.151Z,7.50
2023-06-15T06:39:48.360Z,7.70
2023-06-15T06:40:47.333Z,6.50
2023-06-15T06:41:47.325Z,7.20
2023-06-15T06:42:47.311Z,7.60
2023-06-15T06:43:47.318Z,7.70
2023-06-15T06:44:47.308Z,7.30
2023-06-15T06:45:47.293Z,7.70
2023-06-15T06:46:47.270Z,7.40
2023-06-15T06:47:47.354Z,6.90
2023-06-15T06:48:47.268Z,6.70
2023-06-15T06:49:47.259Z,7.20
2023-06-15T06:50:47.237Z,7.10
2023-06-15T06:51:47.219Z,6.90
2023-06-15T06:52:47.204Z,7.40
2023-06-15T06:53:47.216Z,6.40
2023-06-15T06:54:47.191Z,6.80
2023-06-15T06:55:47.175Z,6.50
2023-06-15T06:56:47.168Z,6.70
2023-06-15T06:57:47.163Z,6.40
2023-06-15T06:58:47.169Z,6.60
2023-06-15T06:59:47.133Z,7.00
2023-06-15T07:00:47.133Z,6.60
2023-06-15T07:01:47.113Z,6.40
2023-06-15T07:02:47.320Z,5.90
2023-06-15T07:03:47.240Z,6.60
2023-06-15T07:04:47.076Z,6.40
2023-06-15T07:05:47.070Z,6.30
2023-06-15T07:06:47.061Z,6.80
2023-06-15T07:07:47.069Z,6.30
2023-06-15T07:08:47.040Z,5.90
2023-06-15T07:09:47.038Z,5.80
2023-06-15T07:10:47.015Z,6.00
2023-06-15T07:11:47.031Z,5.80
2023-06-15T07:12:47.005Z,6.00
2023-06-15T07:13:46.986Z,5.20
2023-06-15T07:14:46.967Z,5.70
2023-06-15T07:15:46.961Z,5.50
2023-06-15T07:16:46.974Z,5.40
2023-06-15T07:17:47.002Z,5.10
2023-06-15T07:18:46.926Z,5.50
2023-06-15T07:19:46.927Z,5.30
2023-06-15T07:20:48.150Z,5.30
2023-06-15T07:21:46.934Z,5.20
2023-06-15T07:22:46.882Z,5.10
2023-06-15T07:23:53.711Z,4.60
2023-06-15T07:24:47.965Z,5.40
2023-06-15T07:25:46.857Z,5.30
2023-06-15T07:26:46.861Z,4.70
2023-06-15T07:27:46.852Z,4.90
2023-06-15T07:28:46.825Z,4.80
2023-06-15T07:29:46.833Z,4.40
2023-06-15T07:30:46.813Z,4.90
2023-06-15T07:31:49.410Z,4.70
2023-06-15T07:32:46.800Z,4.70
2023-06-15T07:33:46.781Z,4.80
2023-06-15T07:34:46.786Z,4.80
2023-06-15T07:35:46.834Z,4.80
2023-06-15T07:36:46.765Z,4.50
2023-06-15T07:37:46.729Z,5.30
2023-06-15T07:38:46.715Z,5.10
2023-06-15T07:39:46.722Z,5.40
2023-06-15T07:40:46.711Z,5.00
2023-06-15T07:41:46.693Z,4.70
2023-06-15T07:42:46.682Z,5.20
2023-06-15T07:43:46.671Z,5.10
2023-06-15T07:44:46.675Z,5.20
2023-06-15T07:45:47.147Z,5.10
2023-06-15T07:46:46.633Z,5.00
2023-06-15T07:47:46.661Z,4.40
2023-06-15T07:48:46.618Z,5.20
2023-06-15T07:49:47.548Z,5.10
2023-06-15T07:50:46.592Z,5.00
2023-06-15T07:51:59.597Z,5.00
2023-06-15T07:52:47.566Z,4.80
2023-06-15T07:53:46.604Z,4.80
2023-06-15T07:54:46.586Z,4.80
2023-06-15T07:55:46.556Z,4.80
2023-06-15T07:56:46.632Z,4.40
2023-06-15T07:57:46.528Z,4.70
2023-06-15T07:58:46.536Z,4.70
2023-06-15T07:59:46.520Z,4.40
2023-06-15T08:00:46.489Z,4.90
2023-06-15T08:01:46.484Z,4.60
2023-06-15T08:02:46.504Z,4.40
2023-06-15T08:03:46.520Z,5.00
2023-06-15T08:04:46.451Z,4.70
2023-06-15T08:05:46.454Z,4.30
2023-06-15T08:06:46.453Z,4.10
2023-06-15T08:07:46.432Z,4.80
2023-06-15T08:08:46.417Z,4.50
2023-06-15T08:09:46.395Z,4.40
2023-06-15T08:10:48.285Z,4.40
2023-06-15T08:11:46.384Z,4.50
2023-06-15T08:12:46.392Z,4.00
2023-06-15T08:13:46.350Z,4.00
2023-06-15T08:14:46.337Z,4.40
2023-06-15T08:15:46.354Z,4.80
2023-06-15T08:16:46.349Z,4.40
2023-06-15T08:17:46.385Z,3.90
2023-06-15T08:18:46.300Z,3.70
2023-06-15T08:19:46.295Z,3.80
2023-06-15T08:20:46.276Z,3.50
2023-06-15T08:21:46.337Z,3.90
2023-06-15T08:22:46.270Z,3.80
2023-06-15T08:23:46.275Z,3.80
2023-06-15T08:24:46.293Z,4.00
2023-06-15T08:25:46.234Z,3.90
2023-06-15T08:26:46.247Z,4.50
2023-06-15T08:27:46.208Z,4.00
2023-06-15T08:28:52.489Z,4.00
2023-06-15T08:29:47.194Z,3.80
2023-06-15T08:30:46.185Z,4.00
2023-06-15T08:31:46.207Z,3.90
2023-06-15T08:32:46.215Z,3.60
2023-06-15T08:33:46.158Z,4.10
2023-06-15T08:34:46.167Z,3.50
2023-06-15T08:35:46.152Z,3.70
2023-06-15T08:36:46.155Z,3.60
2023-06-15T08:37:46.108Z,3.50
2023-06-15T08:38:46.094Z,3.60
2023-06-15T08:39:46.085Z,3.60
2023-06-15T08:40:46.100Z,3.40
2023-06-15T08:41:46.074Z,3.60
2023-06-15T08:42:46.052Z,3.40
2023-06-15T08:43:46.045Z,3.50
2023-06-15T08:44:46.035Z,3.80
2023-06-15T08:45:46.036Z,3.70
2023-06-15T08:46:46.009Z,3.80
2023-06-15T08:47:46.090Z,3.70
2023-06-15T08:48:45.987Z,3.20
2023-06-15T08:49:46.001Z,3.50
2023-06-15T08:50:46.808Z,3.50
2023-06-15T08:51:45.999Z,3.80
2023-06-15T08:52:45.946Z,3.80
2023-06-15T08:53:45.951Z,3.60
2023-06-15T08:54:45.966Z,3.90
2023-06-15T08:55:45.982Z,3.60
2023-06-15T08:56:45.907Z,3.40
2023-06-15T08:57:45.942Z,3.60
2023-06-15T08:58:45.903Z,3.40
2023-06-15T08:59:45.918Z,3.10
2023-06-15T09:00:45.875Z,3.70
2023-06-15T09:01:45.871Z,3.50
2023-06-15T09:02:45.935Z,3.70
2023-06-15T09:03:45.892Z,3.50
2023-06-15T09:04:46.037Z,3.50
2023-06-15T09:05:45.836Z,3.40
2023-06-15T09:06:45.816Z,3.50
2023-06-15T09:07:45.784Z,3.50
2023-06-15T09:08:45.798Z,3.50
2023-06-15T09:09:45.775Z,3.70
2023-06-15T09:10:45.774Z,3.60
2023-06-15T09:11:45.761Z,3.60
2023-06-15T09:12:45.761Z,4.30
2023-06-15T09:13:45.757Z,3.10
2023-06-15T09:14:45.784Z,3.40
2023-06-15T09:15:45.714Z,3.30
2023-06-15T09:16:45.712Z,4.10
2023-06-15T09:17:45.732Z,3.50
2023-06-15T09:18:45.681Z,3.30
2023-06-15T09:19:45.665Z,3.20
2023-06-15T09:20:45.712Z,3.50
2023-06-15T09:21:45.650Z,3.30
2023-06-15T09:22:45.688Z,3.50
2023-06-15T09:23:45.688Z,3.60
2023-06-15T09:24:45.623Z,4.30
2023-06-15T09:25:46.056Z,3.30
2023-06-15T09:26:45.608Z,3.70
2023-06-15T09:27:45.600Z,3.20
2023-06-15T09:28:45.568Z,3.20
2023-06-15T09:29:45.553Z,3.80
2023-06-15T09:30:45.553Z,3.10
2023-06-15T09:31:45.552Z,3.30
2023-06-15T09:32:45.623Z,3.50
2023-06-15T09:33:45.515Z,3.30
2023-06-15T09:34:45.510Z,3.40
2023-06-15T09:35:45.491Z,3.70
2023-06-15T09:36:45.507Z,3.50
2023-06-15T09:37:45.498Z,3.60
2023-06-15T09:38:45.499Z,3.60
2023-06-15T09:39:45.453Z,3.60
2023-06-15T09:40:45.470Z,3.60
2023-06-15T09:41:45.452Z,3.20
2023-06-15T09:42:45.435Z,3.40
2023-06-15T09:43:45.409Z,3.60
2023-06-15T09:44:45.431Z,3.60
2023-06-15T09:45:45.402Z,3.30
2023-06-15T09:46:45.390Z,3.30
2023-06-15T09:47:45.417Z,3.70
2023-06-15T09:48:45.365Z,3.40
2023-06-15T09:49:45.351Z,3.30
2023-06-15T09:50:45.456Z,3.50
2023-06-15T09:51:45.341Z,3.60
2023-06-15T09:52:45.332Z,3.20
2023-06-15T09:53:45.388Z,3.30
2023-06-15T09:54:45.323Z,3.20
2023-06-15T09:55:45.300Z,3.20
2023-06-15T09:56:45.276Z,3.70
2023-06-15T09:57:45.268Z,3.80
2023-06-15T09:58:45.250Z,3.40
2023-06-15T09:59:45.263Z,3.50
2023-06-15T10:00:45.232Z,3.20
2023-06-15T10:01:45.221Z,3.40
2023-06-15T10:02:45.238Z,3.20
2023-06-15T10:03:45.325Z,3.30
2023-06-15T10:04:45.227Z,3.70
2023-06-15T10:05:45.169Z,3.50
2023-06-15T10:06:45.173Z,3.70
2023-06-15T10:07:45.173Z,3.50
2023-06-15T10:08:45.188Z,3.50
2023-06-15T10:09:45.131Z,3.50
2023-06-15T10:10:45.133Z,3.30
2023-06-15T10:11:45.114Z,3.70
2023-06-15T10:12:45.123Z,3.00
2023-06-15T10:13:45.121Z,3.30
2023-06-15T10:14:45.104Z,3.50
2023-06-15T10:15:45.076Z,3.40
2023-06-15T10:16:45.069Z,3.60
2023-06-15T10:17:45.106Z,3.40
2023-06-15T10:18:45.056Z,3.30
2023-06-15T10:19:45.070Z,3.00
2023-06-15T10:20:45.034Z,3.20
2023-06-15T10:21:45.018Z,3.40
2023-06-15T10:22:45.020Z,3.20
2023-06-15T10:23:45.043Z,2.90
2023-06-15T10:24:44.981Z,3.20
2023-06-15T10:25:44.998Z,3.40
2023-06-15T10:26:45.049Z,3.40
2023-06-15T10:27:44.964Z,3.30
2023-06-15T10:28:44.947Z,3.40
2023-06-15T10:29:44.929Z,3.40
2023-06-15T10:30:44.935Z,3.50
2023-06-15T10:31:44.935Z,3.60
2023-06-15T10:32:44.944Z,3.10
2023-06-15T10:33:44.907Z,3.30
2023-06-15T10:34:44.902Z,3.30
2023-06-15T10:35:44.877Z,3.60
2023-06-15T10:36:44.889Z,3.30
2023-06-15T10:37:44.880Z,3.40
2023-06-15T10:38:44.872Z,3.30
2023-06-15T10:39:44.832Z,3.20
2023-06-15T10:40:44.814Z,3.20
2023-06-15T10:41:44.828Z,3.00
2023-06-15T10:42:44.794Z,3.50
2023-06-15T10:43:44.786Z,3.50
2023-06-15T10:44:44.784Z,3.20
2023-06-15T10:45:44.778Z,2.80
2023-06-15T10:46:44.773Z,3.30
2023-06-15T10:47:44.757Z,3.00
2023-06-15T10:48:44.745Z,3.60
2023-06-15T10:49:44.717Z,3.10
2023-06-15T10:50:44.744Z,3.40
2023-06-15T10:51:44.745Z,4.50
2023-06-15T10:52:44.722Z,6.10
2023-06-15T10:53:44.682Z,5.70
2023-06-15T10:54:44.712Z,5.20
2023-06-15T10:55:44.673Z,4.20
2023-06-15T10:56:44.645Z,3.90
2023-06-15T10:57:44.637Z,3.30
2023-06-15T10:58:44.624Z,3.50
2023-06-15T10:59:44.692Z,3.50
2023-06-15T11:00:44.628Z,3.40
2023-06-15T11:01:44.594Z,3.40
2023-06-15T11:02:44.603Z,3.80
2023-06-15T11:03:44.575Z,3.10
2023-06-15T11:04:44.676Z,3.30
2023-06-15T11:05:44.549Z,3.20
2023-06-15T11:06:44.560Z,3.30
2023-06-15T11:07:44.584Z,3.70
2023-06-15T11:08:44.525Z,3.90
2023-06-15T11:09:44.521Z,4.20
2023-06-15T11:10:44.504Z,4.10
2023-06-15T11:11:44.500Z,3.80
2023-06-15T11:12:44.506Z,3.60
2023-06-15T11:13:44.485Z,3.50
2023-06-15T11:14:44.544Z,3.40
2023-06-15T11:15:44.446Z,3.50
2023-06-15T11:16:44.440Z,3.30
2023-06-15T11:17:44.490Z,3.20
2023-06-15T11:18:44.437Z,3.40
2023-06-15T11:19:44.405Z,3.00
2023-06-15T11:20:44.504Z,3.20
2023-06-15T11:21:44.381Z,3.50
2023-06-15T11:22:44.381Z,3.60
2023-06-15T11:23:44.426Z,3.20
2023-06-15T11:24:44.352Z,3.40
2023-06-15T11:25:44.346Z,3.30
2023-06-15T11:26:44.338Z,3.70
2023-06-15T11:27:44.335Z,3.60
2023-06-15T11:28:44.341Z,3.60
2023-06-15T11:29:44.308Z,3.80
2023-06-15T11:30:44.297Z,3.70
2023-06-15T11:31:44.288Z,3.40
2023-06-15T11:32:44.373Z,3.50
2023-06-15T11:33:44.262Z,3.60
2023-06-15T11:34:44.261Z,3.50
2023-06-15T11:35:44.238Z,3.40
2023-06-15T11:36:44.251Z,3.00
2023-06-15T11:37:44.251Z,3.10
2023-06-15T11:38:44.216Z,3.70
2023-06-15T11:39:44.211Z,3.20
2023-06-15T11:40:44.195Z,3.40
2023-06-15T11:41:44.190Z,3.30
2023-06-15T11:42:44.182Z,3.50
2023-06-15T11:43:44.278Z,3.40
2023-06-15T11:44:44.151Z,3.40
2023-06-15T11:45:44.144Z,3.00
2023-06-15T11:46:44.145Z,3.10
2023-06-15T11:47:44.145Z,3.50
2023-06-15T11:48:44.108Z,3.10
2023-06-15T11:49:44.103Z,3.40
2023-06-15T11:50:44.084Z,3.40
2023-06-15T11:51:44.095Z,3.20
2023-06-15T11:52:44.066Z,3.60
2023-06-15T11:53:44.065Z,3.30
2023-06-15T11:54:51.839Z,3.40
2023-06-15T11:55:45.053Z,3.20
2023-06-15T11:56:44.037Z,3.10
2023-06-15T11:57:44.016Z,3.20
2023-06-15T11:58:44.014Z,3.10
2023-06-15T11:59:43.985Z,3.40
2023-06-15T12:00:43.993Z,2.90
2023-06-15T12:01:43.968Z,3.30
2023-06-15T12:02:43.970Z,3.10
2023-06-15T12:03:57.867Z,3.30
2023-06-15T12:04:45.007Z,3.10
2023-06-15T12:05:45.995Z,3.40
2023-06-15T12:06:43.913Z,3.40
2023-06-15T12:07:43.909Z,3.50
2023-06-15T12:08:43.899Z,3.20
2023-06-15T12:09:43.913Z,3.40
2023-06-15T12:10:43.904Z,3.40
2023-06-15T12:11:43.871Z,3.40
2023-06-15T12:12:43.863Z,3.20
2023-06-15T12:13:43.834Z,3.20
2023-06-15T12:14:43.844Z,3.90
2023-06-15T12:15:43.885Z,2.80
2023-06-15T12:16:43.858Z,3.10
2023-06-15T12:17:43.840Z,3.20
2023-06-15T12:18:43.797Z,3.40
2023-06-15T12:19:43.796Z,3.20
2023-06-15T12:20:43.776Z,3.10
2023-06-15T12:21:43.747Z,3.30
2023-06-15T12:22:43.742Z,3.20
2023-06-15T12:23:43.778Z,3.90
2023-06-15T12:24:43.744Z,3.30
2023-06-15T12:25:43.704Z,3.10
2023-06-15T12:26:43.712Z,3.20
2023-06-15T12:27:43.713Z,3.20
2023-06-15T12:28:43.698Z,3.10
2023-06-15T12:29:43.673Z,3.30
2023-06-15T12:30:43.664Z,3.20
2023-06-15T12:31:43.649Z,3.40
2023-06-15T12:32:43.688Z,3.00
2023-06-15T12:33:43.661Z,3.30
2023-06-15T12:34:43.640Z,3.10
2023-06-15T12:35:43.605Z,3.10
2023-06-15T12:36:43.596Z,3.90
2023-06-15T12:37:50.723Z,3.30
2023-06-15T12:38:44.601Z,2.70
2023-06-15T12:39:43.569Z,2.90
2023-06-15T12:40:43.560Z,3.20
2023-06-15T12:41:43.541Z,3.00
2023-06-15T12:42:43.560Z,3.30
2023-06-15T12:43:43.532Z,2.90
2023-06-15T12:44:43.509Z,2.90
2023-06-15T12:45:43.522Z,2.90
2023-06-15T12:46:43.516Z,3.00
2023-06-15T12:47:43.523Z,3.40
2023-06-15T12:48:43.468Z,3.10
2023-06-15T12:49:43.468Z,3.40
2023-06-15T12:50:43.451Z,3.20
2023-06-15T12:51:43.453Z,3.00
2023-06-15T12:52:43.431Z,3.20
2023-06-15T12:53:43.415Z,3.60
2023-06-15T12:54:43.417Z,3.30
2023-06-15T12:55:43.397Z,3.20
2023-06-15T12:56:43.414Z,3.30
2023-06-15T12:57:43.386Z,3.00
2023-06-15T12:58:43.374Z,3.30
2023-06-15T12:59:43.365Z,3.10
2023-06-15T13:00:43.378Z,3.10
2023-06-15T13:01:43.361Z,3.20
2023-06-15T13:02:43.406Z,3.00
2023-06-15T13:03:43.449Z,3.00
2023-06-15T13:04:43.620Z,3.20
2023-06-15T13:05:43.316Z,4.30
2023-06-15T13:06:43.294Z,3.30
2023-06-15T13:07:44.013Z,3.10
2023-06-15T13:08:43.265Z,3.20
2023-06-15T13:09:43.249Z,3.20
2023-06-15T13:10:43.264Z,3.30
2023-06-15T13:11:43.239Z,3.00
2023-06-15T13:12:43.222Z,3.10
2023-06-15T13:13:43.217Z,3.00
2023-06-15T13:14:43.226Z,3.20
2023-06-15T13:15:43.217Z,2.90
2023-06-15T13:16:43.236Z,3.00
2023-06-15T13:17:43.181Z,3.20
2023-06-15T13:18:43.155Z,3.20